Kakushin Maru — JM6667 — position and weather

sailwx.info

Track history (hours):
 
Tides and Currents Weather Stations Pressure Air Temp Water Temp Dewpoint Dewpoint Depression Visibility Wind Speed Wind Dir Waves Ship Positions

Kakushin Maru

Last reported at 2018-Feb-21 08:01 UTC. Time now 2018-Feb-21 19:18 UTC.
Position N 34°06' E 132°42'.

Length 79 m; draft 5.4 m.

Type: Tanker. MMSI: 431602168.

Date/timePositionNaut miles runAvg speedWind from/ knotsBaromVisibWave heightAir tempDewpointWater temp
2018-Feb-21 08:01N 34°06' E 132°42'010.0
2018-Feb-21 08:00N 34°06' E 132°42'510.8
2018-Feb-21 07:30N 34°03' E 132°36'810.1
2018-Feb-21 06:43N 34°03' E 132°27'311.2
2018-Feb-21 06:29N 34°05' E 132°25'510.1
2018-Feb-21 05:59N 34°10' E 132°26'1 1.3
2018-Feb-21 05:29N 34°11' E 132°26'0 0.0
2018-Feb-21 04:58N 34°11' E 132°26'0 0.0
2018-Feb-21 04:30N 34°11' E 132°26'0 0.0
2018-Feb-21 03:59N 34°11' E 132°26'0 0.0
2018-Feb-21 03:30N 34°11' E 132°26'0 0.0
2018-Feb-21 03:00N 34°11' E 132°26'0 0.6
2018-Feb-21 02:30N 34°11' E 132°26'0 0.2
2018-Feb-21 01:59N 34°11' E 132°26'1 2.8
2018-Feb-21 01:30N 34°10' E 132°25'2 3.7
2018-Feb-21 00:59N 34°08' E 132°24'0 0.0
2018-Feb-21 00:03N 34°08' E 132°24'0 0.1
2018-Feb-20 23:58N 34°08' E 132°24'0 0.0
2018-Feb-20 23:25N 34°08' E 132°24'0 0.0
2018-Feb-20 22:49N 34°08' E 132°24'0 0.1
2018-Feb-20 22:27N 34°08' E 132°24'0 0.1
2018-Feb-20 22:00N 34°08' E 132°24'0 0.0
2018-Feb-20 21:30N 34°08' E 132°24'0 0.1
2018-Feb-20 21:00N 34°08' E 132°24'0 0.0
2018-Feb-20 20:30N 34°08' E 132°24'0 0.0
2018-Feb-20 19:59N 34°08' E 132°24'0 0.0
2018-Feb-20 19:29N 34°08' E 132°24'0 0.0
2018-Feb-20 18:57N 34°08' E 132°24'0 0.0
2018-Feb-20 18:29N 34°08' E 132°24'0 0.0
2018-Feb-20 17:57N 34°08' E 132°24'0 0.1
2018-Feb-20 17:30N 34°08' E 132°24'4 8.9
2018-Feb-20 17:00N 34°04' E 132°26'712.6
2018-Feb-20 16:29N 33°58' E 132°29'712.0
2018-Feb-20 15:52N 33°51' E 132°24'512.6
2018-Feb-20 15:28N 33°50' E 132°18'613.4
2018-Feb-20 15:00N 33°50' E 132°11'713.3
2018-Feb-20 14:30N 33°46' E 132°05'713.0
2018-Feb-20 13:59N 33°45' E 131°57'612.6
2018-Feb-20 13:30N 33°45' E 131°49'612.3
2018-Feb-20 13:00N 33°46' E 131°42'612.2
2018-Feb-20 12:30N 33°47' E 131°35'612.3
2018-Feb-20 12:00N 33°48' E 131°28'611.6
2018-Feb-20 11:30N 33°49' E 131°21'611.6
2018-Feb-20 11:00N 33°51' E 131°14'611.6
2018-Feb-20 10:30N 33°54' E 131°08'612.2
2018-Feb-20 10:00N 33°57' E 131°02'510.4
2018-Feb-20 09:31N 33°56' E 130°56'4 7.6
2018-Feb-20 09:00N 33°58' E 130°52'612.5
2018-Feb-20 08:30N 34°04' E 130°51'612.7
2018-Feb-20 08:00N 34°10' E 130°50'612.6
2018-Feb-20 07:30N 34°16' E 130°49'612.0
2018-Feb-20 07:00N 34°22' E 130°49'  
2018-Feb-16 04:21N 34°24' E 130°51'510.9
2018-Feb-16 03:55N 34°20' E 130°48'511.7
2018-Feb-16 03:30N 34°16' E 130°49'612.1
2018-Feb-16 02:58N 34°09' E 130°50'611.9
2018-Feb-16 02:30N 34°04' E 130°51'611.7
2018-Feb-16 02:00N 33°58' E 130°53'4 7.5
2018-Feb-16 01:30N 33°55' E 130°56'611.8
2018-Feb-16 01:00N 33°58' E 131°02'612.2
2018-Feb-16 00:30N 33°54' E 131°08'612.1
2018-Feb-16 00:00N 33°52' E 131°14'612.5
2018-Feb-15 23:30N 33°50' E 131°22'612.3
2018-Feb-15 23:00N 33°49' E 131°29'612.4
2018-Feb-15 22:30N 33°48' E 131°36'612.6
2018-Feb-15 22:00N 33°47' E 131°44'612.2
2018-Feb-15 21:29N 33°45' E 131°51'2811.4
2018-Feb-15 18:58N 33°47' E 132°26'612.5
2018-Feb-15 18:29N 33°50' E 132°32'612.8
2018-Feb-15 18:00N 33°54' E 132°37'713.6
2018-Feb-15 17:29N 33°59' E 132°43'8611.2
2018-Feb-15 09:48N 34°25' E 134°22'411.9
2018-Feb-15 09:30N 34°27' E 134°26'611.6
2018-Feb-15 09:00N 34°29' E 134°33'611.5
2018-Feb-15 08:30N 34°31' E 134°39'611.4
2018-Feb-15 08:00N 34°33' E 134°46'510.8
2018-Feb-15 07:30N 34°35' E 134°52'510.0
2018-Feb-15 07:00N 34°37' E 134°58'4 8.2
2018-Feb-15 06:30N 34°37' E 135°02'5 9.5
2018-Feb-15 06:00N 34°36' E 135°08'611.2
2018-Feb-15 05:30N 34°36' E 135°15'510.9
2018-Feb-15 05:00N 34°36' E 135°21'4 7.9
2018-Feb-15 04:30N 34°34' E 135°26'0 0.2
2018-Feb-15 04:00N 34°34' E 135°26'0 0.1
2018-Feb-15 03:30N 34°34' E 135°26'0 0.1
2018-Feb-15 03:00N 34°34' E 135°26'0 0.0
2018-Feb-15 02:30N 34°34' E 135°26'0 0.0
2018-Feb-15 02:00N 34°34' E 135°26'0 0.0
2018-Feb-15 01:30N 34°34' E 135°26'0 0.0
2018-Feb-15 01:00N 34°34' E 135°26'0 0.0
2018-Feb-15 00:30N 34°34' E 135°26'0 0.0
2018-Feb-15 00:00N 34°34' E 135°26'0 0.0
2018-Feb-14 23:30N 34°34' E 135°26'0 0.0
2018-Feb-14 23:00N 34°34' E 135°26'0 1.0
2018-Feb-14 22:30N 34°35' E 135°25'4 7.7
2018-Feb-14 22:00N 34°36' E 135°21'2 4.6
2018-Feb-14 21:30N 34°36' E 135°18'0 0.0
2018-Feb-14 21:00N 34°36' E 135°18'0 0.0
2018-Feb-14 20:30N 34°36' E 135°18'0 0.0
2018-Feb-14 20:00N 34°36' E 135°18'4 7.9
2018-Feb-14 19:30N 34°35' E 135°14'612.8
2018-Feb-14 19:00N 34°35' E 135°06'713.7
2018-Feb-14 18:31N 34°37' E 134°58'714.6
2018-Feb-14 18:01N 34°34' E 134°50'713.5
2018-Feb-14 17:30N 34°31' E 134°42'713.2
2018-Feb-14 17:01N 34°28' E 134°35'612.8
2018-Feb-14 16:30N 34°26' E 134°28'613.0
2018-Feb-14 16:00N 34°24' E 134°20'713.5
2018-Feb-14 15:30N 34°24' E 134°12'7512.3
2018-Feb-14 09:23N 34°01' E 132°46'513.1
2018-Feb-14 09:00N 33°57' E 132°42'612.7
2018-Feb-14 08:30N 33°53' E 132°36'712.5
2018-Feb-14 07:58N 33°48' E 132°31'912.7
2018-Feb-14 07:17N 33°43' E 132°22'2312.3
2018-Feb-14 05:25N 33°30' E 131°60'611.9
2018-Feb-14 04:56N 33°26' E 131°54'511.8
2018-Feb-14 04:30N 33°23' E 131°49'612.1
2018-Feb-14 04:00N 33°20' E 131°43'5 9.1
2018-Feb-14 03:30N 33°16' E 131°40'0 0.0
2018-Feb-14 03:00N 33°16' E 131°40'0 0.0
2018-Feb-14 02:20N 33°16' E 131°40'0 0.0
2018-Feb-14 01:50N 33°16' E 131°40'0 0.0
2018-Feb-14 01:26N 33°16' E 131°40'0 0.0
2018-Feb-14 00:56N 33°16' E 131°40'0 0.0
2018-Feb-14 00:26N 33°16' E 131°40'0 0.0
2018-Feb-13 23:50N 33°16' E 131°40'5 0.4
2018-Feb-13 12:21N 33°21' E 131°42'411.4
2018-Feb-13 11:59N 33°21' E 131°47'611.4
2018-Feb-13 11:25N 33°19' E 131°55'511.1
2018-Feb-13 10:57N 33°17' E 132°00'331 8.3
2018-Feb-11 19:03N 34°37' E 138°28'1 6.6
2018-Feb-11 18:50N 34°38' E 138°29'2 6.8
2018-Feb-11 18:29N 34°39' E 138°32'3 5.6
2018-Feb-11 17:57N 34°39' E 138°36'2 5.3
2018-Feb-11 17:29N 34°38' E 138°38'3 5.0
2018-Feb-11 16:57N 34°37' E 138°41'3 4.6
2018-Feb-11 16:24N 34°36' E 138°44'2 4.2
2018-Feb-11 16:00N 34°35' E 138°46'2 3.9
2018-Feb-11 15:27N 34°35' E 138°49'2 4.0
2018-Feb-11 15:00N 34°34' E 138°51'3 3.9
2018-Feb-11 14:12N 34°35' E 138°54'1 3.9
2018-Feb-11 14:00N 34°35' E 138°55'2 4.8
2018-Feb-11 13:30N 34°36' E 138°58'4 6.3
2018-Feb-11 12:54N 34°39' E 139°01'3 7.2
2018-Feb-11 12:30N 34°42' E 139°03'5 7.8
2018-Feb-11 11:53N 34°46' E 139°06'3 7.5
2018-Feb-11 11:29N 34°48' E 139°08'6 7.4
2018-Feb-11 10:42N 34°53' E 139°12'2 7.4
2018-Feb-11 10:23N 34°54' E 139°14'4 6.9
2018-Feb-11 09:51N 34°56' E 139°19'2 6.1
2018-Feb-11 09:30N 34°57' E 139°21'3 5.9
2018-Feb-11 09:00N 34°58' E 139°24'3 6.3
2018-Feb-11 08:28N 34°59' E 139°28'  
Track history (hours):
 
Tides and Currents Weather Stations Pressure Air Temp Water Temp Dewpoint Dewpoint Depression Visibility Wind Speed Wind Dir Waves Ship Positions

Kakushin Maru

Last reported at 2018-Feb-21 08:01 UTC. Time now 2018-Feb-21 19:18 UTC.
Position N 34°06' E 132°42'.

Length 79 m; draft 5.4 m.

Type: Tanker. MMSI: 431602168.

Date/timePositionNaut miles runAvg speedWind from/ knotsBaromVisibWave heightAir tempDewpointWater temp
2018-Feb-21 08:01N 34°06' E 132°42'010.0
2018-Feb-21 08:00N 34°06' E 132°42'510.8
2018-Feb-21 07:30N 34°03' E 132°36'810.1
2018-Feb-21 06:43N 34°03' E 132°27'311.2
2018-Feb-21 06:29N 34°05' E 132°25'510.1
2018-Feb-21 05:59N 34°10' E 132°26'1 1.3
2018-Feb-21 05:29N 34°11' E 132°26'0 0.0
2018-Feb-21 04:58N 34°11' E 132°26'0 0.0
2018-Feb-21 04:30N 34°11' E 132°26'0 0.0
2018-Feb-21 03:59N 34°11' E 132°26'0 0.0
2018-Feb-21 03:30N 34°11' E 132°26'0 0.0
2018-Feb-21 03:00N 34°11' E 132°26'0 0.6
2018-Feb-21 02:30N 34°11' E 132°26'0 0.2
2018-Feb-21 01:59N 34°11' E 132°26'1 2.8
2018-Feb-21 01:30N 34°10' E 132°25'2 3.7
2018-Feb-21 00:59N 34°08' E 132°24'0 0.0
2018-Feb-21 00:03N 34°08' E 132°24'0 0.1
2018-Feb-20 23:58N 34°08' E 132°24'0 0.0
2018-Feb-20 23:25N 34°08' E 132°24'0 0.0
2018-Feb-20 22:49N 34°08' E 132°24'0 0.1
2018-Feb-20 22:27N 34°08' E 132°24'0 0.1
2018-Feb-20 22:00N 34°08' E 132°24'0 0.0
2018-Feb-20 21:30N 34°08' E 132°24'0 0.1
2018-Feb-20 21:00N 34°08' E 132°24'0 0.0
2018-Feb-20 20:30N 34°08' E 132°24'0 0.0
2018-Feb-20 19:59N 34°08' E 132°24'0 0.0
2018-Feb-20 19:29N 34°08' E 132°24'0 0.0
2018-Feb-20 18:57N 34°08' E 132°24'0 0.0
2018-Feb-20 18:29N 34°08' E 132°24'0 0.0
2018-Feb-20 17:57N 34°08' E 132°24'0 0.1
2018-Feb-20 17:30N 34°08' E 132°24'4 8.9
2018-Feb-20 17:00N 34°04' E 132°26'712.6
2018-Feb-20 16:29N 33°58' E 132°29'712.0
2018-Feb-20 15:52N 33°51' E 132°24'512.6
2018-Feb-20 15:28N 33°50' E 132°18'613.4
2018-Feb-20 15:00N 33°50' E 132°11'713.3
2018-Feb-20 14:30N 33°46' E 132°05'713.0
2018-Feb-20 13:59N 33°45' E 131°57'612.6
2018-Feb-20 13:30N 33°45' E 131°49'612.3
2018-Feb-20 13:00N 33°46' E 131°42'612.2
2018-Feb-20 12:30N 33°47' E 131°35'612.3
2018-Feb-20 12:00N 33°48' E 131°28'611.6
2018-Feb-20 11:30N 33°49' E 131°21'611.6
2018-Feb-20 11:00N 33°51' E 131°14'611.6
2018-Feb-20 10:30N 33°54' E 131°08'612.2
2018-Feb-20 10:00N 33°57' E 131°02'510.4
2018-Feb-20 09:31N 33°56' E 130°56'4 7.6
2018-Feb-20 09:00N 33°58' E 130°52'612.5
2018-Feb-20 08:30N 34°04' E 130°51'612.7
2018-Feb-20 08:00N 34°10' E 130°50'612.6
2018-Feb-20 07:30N 34°16' E 130°49'612.0
2018-Feb-20 07:00N 34°22' E 130°49'  
2018-Feb-16 04:21N 34°24' E 130°51'510.9
2018-Feb-16 03:55N 34°20' E 130°48'511.7
2018-Feb-16 03:30N 34°16' E 130°49'612.1
2018-Feb-16 02:58N 34°09' E 130°50'611.9
2018-Feb-16 02:30N 34°04' E 130°51'611.7
2018-Feb-16 02:00N 33°58' E 130°53'4 7.5
2018-Feb-16 01:30N 33°55' E 130°56'611.8
2018-Feb-16 01:00N 33°58' E 131°02'612.2
2018-Feb-16 00:30N 33°54' E 131°08'612.1
2018-Feb-16 00:00N 33°52' E 131°14'612.5
2018-Feb-15 23:30N 33°50' E 131°22'612.3
2018-Feb-15 23:00N 33°49' E 131°29'612.4
2018-Feb-15 22:30N 33°48' E 131°36'612.6
2018-Feb-15 22:00N 33°47' E 131°44'612.2
2018-Feb-15 21:29N 33°45' E 131°51'2811.4
2018-Feb-15 18:58N 33°47' E 132°26'612.5
2018-Feb-15 18:29N 33°50' E 132°32'612.8
2018-Feb-15 18:00N 33°54' E 132°37'713.6
2018-Feb-15 17:29N 33°59' E 132°43'8611.2
2018-Feb-15 09:48N 34°25' E 134°22'411.9
2018-Feb-15 09:30N 34°27' E 134°26'611.6
2018-Feb-15 09:00N 34°29' E 134°33'611.5
2018-Feb-15 08:30N 34°31' E 134°39'611.4
2018-Feb-15 08:00N 34°33' E 134°46'510.8
2018-Feb-15 07:30N 34°35' E 134°52'510.0
2018-Feb-15 07:00N 34°37' E 134°58'4 8.2
2018-Feb-15 06:30N 34°37' E 135°02'5 9.5
2018-Feb-15 06:00N 34°36' E 135°08'611.2
2018-Feb-15 05:30N 34°36' E 135°15'510.9
2018-Feb-15 05:00N 34°36' E 135°21'4 7.9
2018-Feb-15 04:30N 34°34' E 135°26'0 0.2
2018-Feb-15 04:00N 34°34' E 135°26'0 0.1
2018-Feb-15 03:30N 34°34' E 135°26'0 0.1
2018-Feb-15 03:00N 34°34' E 135°26'0 0.0
2018-Feb-15 02:30N 34°34' E 135°26'0 0.0
2018-Feb-15 02:00N 34°34' E 135°26'0 0.0
2018-Feb-15 01:30N 34°34' E 135°26'0 0.0
2018-Feb-15 01:00N 34°34' E 135°26'0 0.0
2018-Feb-15 00:30N 34°34' E 135°26'0 0.0
2018-Feb-15 00:00N 34°34' E 135°26'0 0.0
2018-Feb-14 23:30N 34°34' E 135°26'0 0.0
2018-Feb-14 23:00N 34°34' E 135°26'0 1.0
2018-Feb-14 22:30N 34°35' E 135°25'4 7.7
2018-Feb-14 22:00N 34°36' E 135°21'2 4.6
2018-Feb-14 21:30N 34°36' E 135°18'0 0.0
2018-Feb-14 21:00N 34°36' E 135°18'0 0.0
2018-Feb-14 20:30N 34°36' E 135°18'0 0.0
2018-Feb-14 20:00N 34°36' E 135°18'4 7.9
2018-Feb-14 19:30N 34°35' E 135°14'612.8
2018-Feb-14 19:00N 34°35' E 135°06'713.7
2018-Feb-14 18:31N 34°37' E 134°58'714.6
2018-Feb-14 18:01N 34°34' E 134°50'713.5
2018-Feb-14 17:30N 34°31' E 134°42'713.2
2018-Feb-14 17:01N 34°28' E 134°35'612.8
2018-Feb-14 16:30N 34°26' E 134°28'613.0
2018-Feb-14 16:00N 34°24' E 134°20'713.5
2018-Feb-14 15:30N 34°24' E 134°12'7512.3
2018-Feb-14 09:23N 34°01' E 132°46'513.1
2018-Feb-14 09:00N 33°57' E 132°42'612.7
2018-Feb-14 08:30N 33°53' E 132°36'712.5
2018-Feb-14 07:58N 33°48' E 132°31'912.7
2018-Feb-14 07:17N 33°43' E 132°22'2312.3
2018-Feb-14 05:25N 33°30' E 131°60'611.9
2018-Feb-14 04:56N 33°26' E 131°54'511.8
2018-Feb-14 04:30N 33°23' E 131°49'612.1
2018-Feb-14 04:00N 33°20' E 131°43'5 9.1
2018-Feb-14 03:30N 33°16' E 131°40'0 0.0
2018-Feb-14 03:00N 33°16' E 131°40'0 0.0
2018-Feb-14 02:20N 33°16' E 131°40'0 0.0
2018-Feb-14 01:50N 33°16' E 131°40'0 0.0
2018-Feb-14 01:26N 33°16' E 131°40'0 0.0
2018-Feb-14 00:56N 33°16' E 131°40'0 0.0
2018-Feb-14 00:26N 33°16' E 131°40'0 0.0
2018-Feb-13 23:50N 33°16' E 131°40'5 0.4
2018-Feb-13 12:21N 33°21' E 131°42'411.4
2018-Feb-13 11:59N 33°21' E 131°47'611.4
2018-Feb-13 11:25N 33°19' E 131°55'511.1
2018-Feb-13 10:57N 33°17' E 132°00'331 8.3
2018-Feb-11 19:03N 34°37' E 138°28'1 6.6
2018-Feb-11 18:50N 34°38' E 138°29'2 6.8
2018-Feb-11 18:29N 34°39' E 138°32'3 5.6
2018-Feb-11 17:57N 34°39' E 138°36'2 5.3
2018-Feb-11 17:29N 34°38' E 138°38'3 5.0
2018-Feb-11 16:57N 34°37' E 138°41'3 4.6
2018-Feb-11 16:24N 34°36' E 138°44'2 4.2
2018-Feb-11 16:00N 34°35' E 138°46'2 3.9
2018-Feb-11 15:27N 34°35' E 138°49'2 4.0
2018-Feb-11 15:00N 34°34' E 138°51'3 3.9
2018-Feb-11 14:12N 34°35' E 138°54'1 3.9
2018-Feb-11 14:00N 34°35' E 138°55'2 4.8
2018-Feb-11 13:30N 34°36' E 138°58'4 6.3
2018-Feb-11 12:54N 34°39' E 139°01'3 7.2
2018-Feb-11 12:30N 34°42' E 139°03'5 7.8
2018-Feb-11 11:53N 34°46' E 139°06'3 7.5
2018-Feb-11 11:29N 34°48' E 139°08'6 7.4
2018-Feb-11 10:42N 34°53' E 139°12'2 7.4
2018-Feb-11 10:23N 34°54' E 139°14'4 6.9
2018-Feb-11 09:51N 34°56' E 139°19'2 6.1
2018-Feb-11 09:30N 34°57' E 139°21'3 5.9
2018-Feb-11 09:00N 34°58' E 139°24'3 6.3
2018-Feb-11 08:28N 34°59' E 139°28'  

Dump ship's entire track history